TSO3250 UKBB-LBSF
Flight info
| Callsign | TSO3250 |
|---|---|
| Flight time | N/A |
| Altitude | 36000 |
| Route | UKBB SID BASOR M856 SULUM N145 LAVDA N181 NUNTA DCT ULGAP DCT BUKEL DCT TIMUR N181 GOL STAR LBSF |
| Aircraft | B733/M-SDFGHIRWY/HB1 |
Departure
| Time | 2025-10-07 17:34 |
|---|---|
| Airport | Boryspil International Airport (UKBB) |
Arrival
| Time | N/A |
|---|---|
| Airport | Sofia Airport (LBSF) |
| Time | Latitude | Longitude | Altitude | Speed | Heading |
|---|---|---|---|---|---|
| 2025-10-07 17:08 | 50.35152 | 30.89883 | 407 ft | 0 kts | 274° |
| 2025-10-07 17:22 | 50.35150 | 30.89952 | 406 ft | 2 kts | 274° |
| 2025-10-07 17:22 | 50.35145 | 30.89998 | 405 ft | 2 kts | 311° |
| 2025-10-07 17:23 | 50.35125 | 30.90013 | 405 ft | 1 kts | 8° |
| 2025-10-07 17:24 | 50.35120 | 30.90012 | 405 ft | 0 kts | 4° |
| 2025-10-07 17:27 | 50.35149 | 30.90014 | 405 ft | 4 kts | 2° |
| 2025-10-07 17:28 | 50.35335 | 30.90027 | 404 ft | 12 kts | 2° |
| 2025-10-07 17:28 | 50.35428 | 30.90042 | 402 ft | 14 kts | 25° |
| 2025-10-07 17:28 | 50.35524 | 30.90283 | 402 ft | 14 kts | 4° |
| 2025-10-07 17:29 | 50.35753 | 30.90301 | 402 ft | 20 kts | 3° |
| 2025-10-07 17:29 | 50.36042 | 30.90343 | 402 ft | 0 kts | 32° |
| 2025-10-07 17:31 | 50.36052 | 30.90354 | 402 ft | 5 kts | 37° |
| 2025-10-07 17:32 | 50.35918 | 30.90638 | 398 ft | 20 kts | 182° |
| 2025-10-07 17:32 | 50.35371 | 30.90602 | 400 ft | 58 kts | 182° |
| 2025-10-07 17:33 | 50.33630 | 30.90468 | 553 ft | 171 kts | 179° |
| 2025-10-07 17:33 | 50.31184 | 30.89961 | 1547 ft | 185 kts | 187° |
| 2025-10-07 17:34 | 50.28518 | 30.89154 | 1958 ft | 191 kts | 186° |
| 2025-10-07 17:34 | 50.25912 | 30.88290 | 2868 ft | 231 kts | 190° |
| 2025-10-07 17:35 | 50.23015 | 30.87496 | 5227 ft | 194 kts | 181° |
| 2025-10-07 17:36 | 50.17729 | 30.86078 | 4925 ft | 265 kts | 196° |
| 2025-10-07 17:36 | 50.16037 | 30.84808 | 5689 ft | 278 kts | 213° |
| 2025-10-07 17:36 | 50.13505 | 30.80242 | 7089 ft | 293 kts | 221° |
| 2025-10-07 17:37 | 50.09961 | 30.79494 | 6674 ft | 272 kts | 160° |
| 2025-10-07 17:37 | 50.06090 | 30.78662 | 5088 ft | 318 kts | 199° |
| 2025-10-07 17:38 | 50.02088 | 30.80608 | 4213 ft | 351 kts | 101° |
| 2025-10-07 17:38 | 50.03007 | 30.86848 | 6274 ft | 244 kts | 65° |
| 2025-10-07 17:39 | 50.03450 | 30.87924 | 6899 ft | 239 kts | 48° |
| 2025-10-07 17:39 | 50.04694 | 30.88888 | 7184 ft | 267 kts | 359° |
| 2025-10-07 17:40 | 50.04664 | 30.85249 | 9024 ft | 214 kts | 207° |
| 2025-10-07 17:40 | 50.03097 | 30.83977 | 5811 ft | 260 kts | 216° |
| 2025-10-07 17:41 | 50.02724 | 30.84025 | 613 ft | 0 kts | 278° |